sensor_id;sensor_type;location;lat;lon;timestamp;pressure;altitude;pressure_sealevel;temperature;humidity
22649;BME280;11491;41.942;24.220;2022-07-23T00:01:09;90406.63;;;15.84;72.94
22649;BME280;11491;41.942;24.220;2022-07-23T00:03:37;90417.53;;;15.91;72.97
22649;BME280;11491;41.942;24.220;2022-07-23T00:06:04;90411.16;;;15.76;74.03
22649;BME280;11491;41.942;24.220;2022-07-23T00:08:31;90424.28;;;15.78;73.37
22649;BME280;11491;41.942;24.220;2022-07-23T00:10:58;90415.22;;;15.66;74.21
22649;BME280;11491;41.942;24.220;2022-07-23T00:13:26;90422.88;;;15.64;74.61
22649;BME280;11491;41.942;24.220;2022-07-23T00:15:52;90421.44;;;15.47;75.13
22649;BME280;11491;41.942;24.220;2022-07-23T00:18:19;90418.56;;;15.60;73.72
22649;BME280;11491;41.942;24.220;2022-07-23T00:20:47;90419.75;;;15.62;73.65
22649;BME280;11491;41.942;24.220;2022-07-23T00:23:14;90416.72;;;15.64;73.22
22649;BME280;11491;41.942;24.220;2022-07-23T00:25:41;90412.03;;;15.61;73.80
22649;BME280;11491;41.942;24.220;2022-07-23T00:28:08;90414.78;;;15.64;73.33
22649;BME280;11491;41.942;24.220;2022-07-23T00:30:35;90392.38;;;15.34;73.60
22649;BME280;11491;41.942;24.220;2022-07-23T00:33:04;90416.06;;;15.47;74.02
22649;BME280;11491;41.942;24.220;2022-07-23T00:35:33;90413.84;;;15.53;73.57
22649;BME280;11491;41.942;24.220;2022-07-23T00:38:04;90421.16;;;15.29;74.50
22649;BME280;11491;41.942;24.220;2022-07-23T00:40:31;90425.81;;;15.33;74.54
22649;BME280;11491;41.942;24.220;2022-07-23T00:42:58;90425.59;;;15.18;76.03
22649;BME280;11491;41.942;24.220;2022-07-23T00:45:26;90423.72;;;15.22;75.60
22649;BME280;11491;41.942;24.220;2022-07-23T00:47:53;90420.97;;;14.96;76.81
22649;BME280;11491;41.942;24.220;2022-07-23T00:50:20;90419.31;;;15.11;76.24
22649;BME280;11491;41.942;24.220;2022-07-23T00:52:46;90426.53;;;15.29;74.37
22649;BME280;11491;41.942;24.220;2022-07-23T00:55:15;90415.75;;;15.29;74.26
22649;BME280;11491;41.942;24.220;2022-07-23T00:57:42;90407.13;;;15.20;74.05
22649;BME280;11491;41.942;24.220;2022-07-23T01:00:11;90417.69;;;15.06;75.37
22649;BME280;11491;41.942;24.220;2022-07-23T01:02:38;90418.63;;;15.17;74.01
22649;BME280;11491;41.942;24.220;2022-07-23T01:05:07;90412.00;;;15.11;73.90
22649;BME280;11491;41.942;24.220;2022-07-23T01:07:34;90416.09;;;15.05;75.21
22649;BME280;11491;41.942;24.220;2022-07-23T01:10:02;90414.00;;;14.95;75.59
22649;BME280;11491;41.942;24.220;2022-07-23T01:12:30;90415.88;;;14.91;76.24
22649;BME280;11491;41.942;24.220;2022-07-23T01:14:58;90407.97;;;14.78;76.39
22649;BME280;11491;41.942;24.220;2022-07-23T01:17:25;90413.59;;;14.93;75.60
22649;BME280;11491;41.942;24.220;2022-07-23T01:19:52;90415.94;;;14.94;75.37
22649;BME280;11491;41.942;24.220;2022-07-23T01:22:20;90410.88;;;14.93;75.65
22649;BME280;11491;41.942;24.220;2022-07-23T01:24:48;90414.31;;;14.90;75.24
22649;BME280;11491;41.942;24.220;2022-07-23T01:27:15;90405.94;;;14.95;74.41
22649;BME280;11491;41.942;24.220;2022-07-23T01:29:43;90394.78;;;14.73;75.49
22649;BME280;11491;41.942;24.220;2022-07-23T01:32:09;90408.19;;;14.93;74.26
22649;BME280;11491;41.942;24.220;2022-07-23T01:34:36;90404.53;;;14.81;74.91
22649;BME280;11491;41.942;24.220;2022-07-23T01:37:03;90399.50;;;14.80;75.08
22649;BME280;11491;41.942;24.220;2022-07-23T01:39:30;90401.78;;;14.78;75.09
22649;BME280;11491;41.942;24.220;2022-07-23T01:41:58;90401.59;;;14.67;75.80
22649;BME280;11491;41.942;24.220;2022-07-23T01:44:25;90392.16;;;14.57;76.66
22649;BME280;11491;41.942;24.220;2022-07-23T01:46:51;90401.59;;;14.67;75.23
22649;BME280;11491;41.942;24.220;2022-07-23T01:49:18;90408.25;;;14.54;76.46
22649;BME280;11491;41.942;24.220;2022-07-23T01:51:45;90398.81;;;14.44;77.11
22649;BME280;11491;41.942;24.220;2022-07-23T01:54:26;90400.88;;;14.31;78.14
22649;BME280;11491;41.942;24.220;2022-07-23T01:56:52;90404.34;;;14.51;76.18
22649;BME280;11491;41.942;24.220;2022-07-23T01:59:21;90403.31;;;14.56;75.58
22649;BME280;11491;41.942;24.220;2022-07-23T02:01:48;90395.06;;;14.49;76.10
22649;BME280;11491;41.942;24.220;2022-07-23T02:04:16;90400.50;;;14.52;75.64
22649;BME280;11491;41.942;24.220;2022-07-23T02:06:43;90411.06;;;14.41;76.13
22649;BME280;11491;41.942;24.220;2022-07-23T02:09:10;90397.91;;;14.36;76.54
22649;BME280;11491;41.942;24.220;2022-07-23T02:11:36;90402.28;;;14.25;77.21
22649;BME280;11491;41.942;24.220;2022-07-23T02:14:03;90402.41;;;14.32;76.74
22649;BME280;11491;41.942;24.220;2022-07-23T02:16:32;90385.41;;;14.28;76.45
22649;BME280;11491;41.942;24.220;2022-07-23T02:18:59;90388.63;;;14.34;76.82
22649;BME280;11491;41.942;24.220;2022-07-23T02:21:25;90372.28;;;14.04;78.07
22649;BME280;11491;41.942;24.220;2022-07-23T02:23:52;90386.53;;;14.08;78.14
22649;BME280;11491;41.942;24.220;2022-07-23T02:26:19;90397.88;;;14.17;78.25
22649;BME280;11491;41.942;24.220;2022-07-23T02:28:46;90399.72;;;14.13;78.71
22649;BME280;11491;41.942;24.220;2022-07-23T02:31:13;90399.16;;;14.23;78.19
22649;BME280;11491;41.942;24.220;2022-07-23T02:33:41;90404.53;;;14.23;77.76
22649;BME280;11491;41.942;24.220;2022-07-23T02:36:08;90404.81;;;14.37;76.10
22649;BME280;11491;41.942;24.220;2022-07-23T02:38:35;90401.84;;;14.42;75.78
22649;BME280;11491;41.942;24.220;2022-07-23T02:41:02;90403.19;;;14.33;75.97
22649;BME280;11491;41.942;24.220;2022-07-23T02:43:29;90402.75;;;14.31;76.30
22649;BME280;11491;41.942;24.220;2022-07-23T02:45:55;90409.91;;;14.23;77.14
22649;BME280;11491;41.942;24.220;2022-07-23T02:48:22;90409.63;;;14.09;77.67
22649;BME280;11491;41.942;24.220;2022-07-23T02:50:50;90410.19;;;14.18;77.18
22649;BME280;11491;41.942;24.220;2022-07-23T02:53:18;90390.38;;;14.07;76.59
22649;BME280;11491;41.942;24.220;2022-07-23T02:55:44;90408.22;;;14.15;77.32
22649;BME280;11491;41.942;24.220;2022-07-23T02:58:11;90412.59;;;14.04;77.67
22649;BME280;11491;41.942;24.220;2022-07-23T03:00:38;90417.97;;;14.04;77.57
22649;BME280;11491;41.942;24.220;2022-07-23T03:03:05;90328.91;;;13.19;78.75
22649;BME280;11491;41.942;24.220;2022-07-23T03:05:32;90356.91;;;13.49;77.51
22649;BME280;11491;41.942;24.220;2022-07-23T03:08:00;90388.38;;;13.84;77.03
22649;BME280;11491;41.942;24.220;2022-07-23T03:10:27;90427.69;;;13.92;77.88
22649;BME280;11491;41.942;24.220;2022-07-23T03:12:54;90434.09;;;14.04;76.97
22649;BME280;11491;41.942;24.220;2022-07-23T03:15:21;90430.13;;;13.97;77.44
22649;BME280;11491;41.942;24.220;2022-07-23T03:17:48;90412.91;;;13.83;77.59
22649;BME280;11491;41.942;24.220;2022-07-23T03:20:14;90432.81;;;13.97;78.08
22649;BME280;11491;41.942;24.220;2022-07-23T03:22:41;90421.72;;;13.83;77.77
22649;BME280;11491;41.942;24.220;2022-07-23T03:25:10;90435.75;;;13.92;78.02
22649;BME280;11491;41.942;24.220;2022-07-23T03:27:37;90436.03;;;13.87;77.94
22649;BME280;11491;41.942;24.220;2022-07-23T03:30:04;90436.16;;;13.75;78.59
22649;BME280;11491;41.942;24.220;2022-07-23T03:32:31;90436.75;;;13.84;78.58
22649;BME280;11491;41.942;24.220;2022-07-23T03:34:58;90365.91;;;13.41;79.09
22649;BME280;11491;41.942;24.220;2022-07-23T03:37:25;90437.03;;;13.98;79.05
22649;BME280;11491;41.942;24.220;2022-07-23T03:39:53;90347.53;;;13.43;78.50
22649;BME280;11491;41.942;24.220;2022-07-23T03:42:21;90445.13;;;14.18;77.56
22649;BME280;11491;41.942;24.220;2022-07-23T03:44:48;90408.69;;;14.01;77.59
22649;BME280;11491;41.942;24.220;2022-07-23T03:47:14;90425.06;;;14.12;77.58
22649;BME280;11491;41.942;24.220;2022-07-23T03:49:42;90445.13;;;14.18;78.36
22649;BME280;11491;41.942;24.220;2022-07-23T03:52:09;90441.56;;;13.94;79.58
22649;BME280;11491;41.942;24.220;2022-07-23T03:54:36;90429.50;;;14.04;79.63
22649;BME280;11491;41.942;24.220;2022-07-23T03:57:03;90444.91;;;14.07;79.88
22649;BME280;11491;41.942;24.220;2022-07-23T03:59:31;90429.25;;;13.93;79.25
22649;BME280;11491;41.942;24.220;2022-07-23T04:01:58;90439.34;;;14.35;78.86
22649;BME280;11491;41.942;24.220;2022-07-23T04:04:25;90444.16;;;14.46;77.70
22649;BME280;11491;41.942;24.220;2022-07-23T04:06:51;90442.94;;;14.59;76.62
22649;BME280;11491;41.942;24.220;2022-07-23T04:09:18;90420.91;;;14.53;77.06
22649;BME280;11491;41.942;24.220;2022-07-23T04:11:45;90446.28;;;14.72;77.77
22649;BME280;11491;41.942;24.220;2022-07-23T04:14:12;90446.31;;;14.75;78.15
22649;BME280;11491;41.942;24.220;2022-07-23T04:16:40;90452.72;;;14.86;77.87
22649;BME280;11491;41.942;24.220;2022-07-23T04:19:07;90448.19;;;14.91;77.70
22649;BME280;11491;41.942;24.220;2022-07-23T04:21:34;90454.59;;;15.05;76.70
22649;BME280;11491;41.942;24.220;2022-07-23T04:24:00;90444.28;;;15.31;74.91
22649;BME280;11491;41.942;24.220;2022-07-23T04:26:27;90447.59;;;15.47;74.64
22649;BME280;11491;41.942;24.220;2022-07-23T04:28:54;90447.72;;;15.54;75.33
22649;BME280;11491;41.942;24.220;2022-07-23T04:31:21;90446.31;;;15.60;75.42
22649;BME280;11491;41.942;24.220;2022-07-23T04:33:49;90429.56;;;15.70;73.96
22649;BME280;11491;41.942;24.220;2022-07-23T04:36:16;90384.44;;;15.44;73.79
22649;BME280;11491;41.942;24.220;2022-07-23T04:38:43;90443.25;;;16.11;73.27
22649;BME280;11491;41.942;24.220;2022-07-23T04:41:10;90445.09;;;16.34;73.00
22649;BME280;11491;41.942;24.220;2022-07-23T04:43:36;90448.41;;;16.50;72.53
22649;BME280;11491;41.942;24.220;2022-07-23T04:46:03;90444.81;;;16.73;71.13
22649;BME280;11491;41.942;24.220;2022-07-23T04:48:31;90448.13;;;16.89;70.42
22649;BME280;11491;41.942;24.220;2022-07-23T04:50:59;90449.09;;;17.08;69.71
22649;BME280;11491;41.942;24.220;2022-07-23T04:53:26;90443.78;;;17.15;69.67
22649;BME280;11491;41.942;24.220;2022-07-23T04:55:53;90390.53;;;16.78;69.77
22649;BME280;11491;41.942;24.220;2022-07-23T04:58:20;90441.63;;;17.31;69.52
22649;BME280;11491;41.942;24.220;2022-07-23T05:00:47;90400.50;;;17.08;69.01
22649;BME280;11491;41.942;24.220;2022-07-23T05:03:14;90365.84;;;17.17;68.20
22649;BME280;11491;41.942;24.220;2022-07-23T05:05:41;90443.72;;;17.93;68.19
22649;BME280;11491;41.942;24.220;2022-07-23T05:08:10;90433.03;;;18.07;67.94
22649;BME280;11491;41.942;24.220;2022-07-23T05:10:37;90443.22;;;18.28;67.31
22649;BME280;11491;41.942;24.220;2022-07-23T05:13:04;90439.44;;;18.47;66.62
22649;BME280;11491;41.942;24.220;2022-07-23T05:15:31;90437.97;;;18.57;67.64
22649;BME280;11491;41.942;24.220;2022-07-23T05:17:58;90414.03;;;18.66;67.11
22649;BME280;11491;41.942;24.220;2022-07-23T05:20:25;90419.53;;;18.88;67.86
22649;BME280;11491;41.942;24.220;2022-07-23T05:22:51;90433.97;;;19.13;65.02
22649;BME280;11491;41.942;24.220;2022-07-23T05:25:22;90434.38;;;19.23;65.07
22649;BME280;11491;41.942;24.220;2022-07-23T05:27:49;90429.41;;;19.46;64.07
22649;BME280;11491;41.942;24.220;2022-07-23T05:30:16;90401.13;;;19.44;62.53
22649;BME280;11491;41.942;24.220;2022-07-23T05:32:44;90415.09;;;19.64;62.26
22649;BME280;11491;41.942;24.220;2022-07-23T05:35:11;90405.03;;;19.75;62.38
22649;BME280;11491;41.942;24.220;2022-07-23T05:37:38;90418.22;;;20.16;61.79
22649;BME280;11491;41.942;24.220;2022-07-23T05:40:06;90427.47;;;20.51;61.59
22649;BME280;11491;41.942;24.220;2022-07-23T05:42:35;90428.59;;;20.78;61.61
22649;BME280;11491;41.942;24.220;2022-07-23T05:45:02;90412.72;;;20.70;60.40
22649;BME280;11491;41.942;24.220;2022-07-23T05:47:45;90380.09;;;20.66;59.65
22649;BME280;11491;41.942;24.220;2022-07-23T06:31:21;90437.75;;;25.01;54.95
22649;BME280;11491;41.942;24.220;2022-07-23T06:33:54;90438.91;;;25.24;55.21
22649;BME280;11491;41.942;24.220;2022-07-23T06:36:26;90444.66;;;25.49;53.70
22649;BME280;11491;41.942;24.220;2022-07-23T06:38:56;90421.53;;;25.70;52.02
22649;BME280;11491;41.942;24.220;2022-07-23T06:41:26;90420.41;;;25.88;52.69
22649;BME280;11491;41.942;24.220;2022-07-23T06:43:53;90434.91;;;26.05;50.84
22649;BME280;11491;41.942;24.220;2022-07-23T06:46:21;90399.81;;;25.99;52.50
22649;BME280;11491;41.942;24.220;2022-07-23T06:48:48;90421.22;;;26.37;49.89
22649;BME280;11491;41.942;24.220;2022-07-23T06:51:15;90413.38;;;26.56;49.08
22649;BME280;11491;41.942;24.220;2022-07-23T06:53:42;90402.03;;;26.70;47.83
22649;BME280;11491;41.942;24.220;2022-07-23T06:56:09;90357.25;;;26.44;46.21
22649;BME280;11491;41.942;24.220;2022-07-23T06:58:36;90364.59;;;26.93;43.81
22649;BME280;11491;41.942;24.220;2022-07-23T07:01:03;90421.09;;;27.36;39.45
22649;BME280;11491;41.942;24.220;2022-07-23T07:03:31;90285.34;;;26.69;39.36
22649;BME280;11491;41.942;24.220;2022-07-23T07:05:58;90420.28;;;27.77;39.34
22649;BME280;11491;41.942;24.220;2022-07-23T07:08:25;90409.34;;;27.90;38.44
22649;BME280;11491;41.942;24.220;2022-07-23T07:10:52;90363.69;;;27.54;36.57
22649;BME280;11491;41.942;24.220;2022-07-23T07:13:19;90417.88;;;27.79;36.89
22649;BME280;11491;41.942;24.220;2022-07-23T07:15:46;90425.69;;;27.81;37.64
22649;BME280;11491;41.942;24.220;2022-07-23T07:18:12;90397.25;;;27.87;37.70
22649;BME280;11491;41.942;24.220;2022-07-23T07:20:41;90408.03;;;27.95;34.88
22649;BME280;11491;41.942;24.220;2022-07-23T07:23:07;90384.91;;;27.79;36.08
22649;BME280;11491;41.942;24.220;2022-07-23T07:25:34;90389.66;;;27.79;35.84
22649;BME280;11491;41.942;24.220;2022-07-23T07:28:01;90322.28;;;27.36;35.51
22649;BME280;11491;41.942;24.220;2022-07-23T07:30:28;90426.56;;;27.78;35.58
22649;BME280;11491;41.942;24.220;2022-07-23T07:32:55;90408.03;;;27.95;34.96
22649;BME280;11491;41.942;24.220;2022-07-23T07:35:22;90398.91;;;27.85;35.48
22649;BME280;11491;41.942;24.220;2022-07-23T07:37:50;90400.66;;;28.04;34.71
22649;BME280;11491;41.942;24.220;2022-07-23T07:40:17;90309.69;;;27.51;34.67
22649;BME280;11491;41.942;24.220;2022-07-23T07:42:45;90396.50;;;28.12;33.90
22649;BME280;11491;41.942;24.220;2022-07-23T07:45:12;90396.16;;;28.36;34.81
22649;BME280;11491;41.942;24.220;2022-07-23T07:47:38;90399.38;;;28.47;36.34
22649;BME280;11491;41.942;24.220;2022-07-23T07:50:06;90400.31;;;28.53;32.98
22649;BME280;11491;41.942;24.220;2022-07-23T07:52:33;90403.84;;;28.28;33.43
22649;BME280;11491;41.942;24.220;2022-07-23T07:55:03;90402.41;;;28.49;32.91
22649;BME280;11491;41.942;24.220;2022-07-23T07:57:30;90399.75;;;28.59;31.79
22649;BME280;11491;41.942;24.220;2022-07-23T07:59:57;90413.63;;;28.68;33.12
22649;BME280;11491;41.942;24.220;2022-07-23T08:02:24;90357.56;;;28.27;34.13
22649;BME280;11491;41.942;24.220;2022-07-23T08:04:51;90411.88;;;28.48;32.29
22649;BME280;11491;41.942;24.220;2022-07-23T08:07:19;90370.09;;;28.28;32.21
22649;BME280;11491;41.942;24.220;2022-07-23T08:09:46;90314.97;;;27.84;32.14
22649;BME280;11491;41.942;24.220;2022-07-23T08:12:15;90380.88;;;28.35;32.17
22649;BME280;11491;41.942;24.220;2022-07-23T08:14:41;90393.59;;;28.54;34.37
22649;BME280;11491;41.942;24.220;2022-07-23T08:17:10;90389.19;;;28.70;34.61
22649;BME280;11491;41.942;24.220;2022-07-23T08:19:37;90366.16;;;28.76;33.09
22649;BME280;11491;41.942;24.220;2022-07-23T08:22:04;90380.75;;;29.21;33.21
22649;BME280;11491;41.942;24.220;2022-07-23T08:24:30;90354.06;;;28.74;32.04
22649;BME280;11491;41.942;24.220;2022-07-23T08:26:57;90393.72;;;28.98;31.25
22649;BME280;11491;41.942;24.220;2022-07-23T08:29:26;90339.91;;;28.97;33.24
22649;BME280;11491;41.942;24.220;2022-07-23T08:31:52;90378.53;;;29.51;35.03
22649;BME280;11491;41.942;24.220;2022-07-23T08:34:19;90326.13;;;29.32;32.85
22649;BME280;11491;41.942;24.220;2022-07-23T08:36:46;90372.66;;;29.93;33.05
22649;BME280;11491;41.942;24.220;2022-07-23T08:39:13;90369.63;;;30.00;30.88
22649;BME280;11491;41.942;24.220;2022-07-23T08:41:40;90341.69;;;29.79;30.53
22649;BME280;11491;41.942;24.220;2022-07-23T08:44:07;90362.94;;;30.10;31.58
22649;BME280;11491;41.942;24.220;2022-07-23T08:46:36;90364.38;;;30.24;32.07
22649;BME280;11491;41.942;24.220;2022-07-23T08:49:05;90358.75;;;30.37;33.24
22649;BME280;11491;41.942;24.220;2022-07-23T08:51:32;90371.38;;;30.65;32.64
22649;BME280;11491;41.942;24.220;2022-07-23T08:53:59;90371.09;;;30.82;31.00
22649;BME280;11491;41.942;24.220;2022-07-23T08:56:27;90311.59;;;30.53;31.07
22649;BME280;11491;41.942;24.220;2022-07-23T08:58:54;90325.28;;;30.66;31.04
22649;BME280;11491;41.942;24.220;2022-07-23T09:01:20;90369.59;;;31.18;29.17
22649;BME280;11491;41.942;24.220;2022-07-23T09:03:49;90360.72;;;31.23;28.94
22649;BME280;11491;41.942;24.220;2022-07-23T09:06:16;90267.47;;;30.62;31.57
22649;BME280;11491;41.942;24.220;2022-07-23T09:08:44;90358.56;;;31.54;29.15
22649;BME280;11491;41.942;24.220;2022-07-23T09:11:13;90351.19;;;31.61;27.06
22649;BME280;11491;41.942;24.220;2022-07-23T09:13:46;90235.00;;;30.66;29.24
22649;BME280;11491;41.942;24.220;2022-07-23T09:16:15;90350.88;;;31.68;27.51
22649;BME280;11491;41.942;24.220;2022-07-23T09:18:44;90379.38;;;31.83;28.45
22649;BME280;11491;41.942;24.220;2022-07-23T09:21:28;90372.63;;;31.84;29.35
22649;BME280;11491;41.942;24.220;2022-07-23T09:23:57;90307.31;;;31.53;29.09
22649;BME280;11491;41.942;24.220;2022-07-23T09:26:33;90349.59;;;31.96;28.49
22649;BME280;11491;41.942;24.220;2022-07-23T09:29:03;90352.91;;;32.10;27.90
22649;BME280;11491;41.942;24.220;2022-07-23T09:31:32;90257.31;;;31.51;28.81
22649;BME280;11491;41.942;24.220;2022-07-23T09:34:10;90356.50;;;32.34;27.18
22649;BME280;11491;41.942;24.220;2022-07-23T09:36:40;90350.63;;;32.42;28.42
22649;BME280;11491;41.942;24.220;2022-07-23T09:39:07;90350.16;;;32.52;28.51
22649;BME280;11491;41.942;24.220;2022-07-23T09:41:36;90345.44;;;32.68;28.36
22649;BME280;11491;41.942;24.220;2022-07-23T09:44:08;90256.28;;;32.15;29.19
22649;BME280;11491;41.942;24.220;2022-07-23T09:46:36;90257.53;;;32.38;27.31
22649;BME280;11491;41.942;24.220;2022-07-23T09:49:14;90322.34;;;32.95;27.19
22649;BME280;11491;41.942;24.220;2022-07-23T09:51:56;90325.38;;;32.82;27.24
22649;BME280;11491;41.942;24.220;2022-07-23T09:54:26;90338.91;;;32.56;28.45
22649;BME280;11491;41.942;24.220;2022-07-23T09:56:56;90234.47;;;31.75;27.92
22649;BME280;11491;41.942;24.220;2022-07-23T09:59:26;90326.72;;;32.29;27.90
22649;BME280;11491;41.942;24.220;2022-07-23T10:01:54;90307.94;;;32.33;29.63
22649;BME280;11491;41.942;24.220;2022-07-23T10:04:23;90293.47;;;32.38;27.16
22649;BME280;11491;41.942;24.220;2022-07-23T10:06:57;90347.78;;;32.84;28.91
22649;BME280;11491;41.942;24.220;2022-07-23T10:09:28;90311.47;;;32.67;29.11
22649;BME280;11491;41.942;24.220;2022-07-23T10:11:57;90346.19;;;33.16;28.82
22649;BME280;11491;41.942;24.220;2022-07-23T10:14:32;90370.84;;;33.29;28.68
22649;BME280;11491;41.942;24.220;2022-07-23T10:17:01;90331.69;;;33.21;27.70
22649;BME280;11491;41.942;24.220;2022-07-23T10:19:28;90277.38;;;32.85;27.75
22649;BME280;11491;41.942;24.220;2022-07-23T10:21:59;90346.81;;;33.50;28.61
22649;BME280;11491;41.942;24.220;2022-07-23T10:24:36;90346.50;;;33.57;28.85
22649;BME280;11491;41.942;24.220;2022-07-23T10:27:16;90358.94;;;33.77;26.48
22649;BME280;11491;41.942;24.220;2022-07-23T10:29:50;90272.22;;;33.32;27.65
22649;BME280;11491;41.942;24.220;2022-07-23T10:32:27;90277.28;;;33.48;28.26
22649;BME280;11491;41.942;24.220;2022-07-23T10:35:14;90203.78;;;32.93;25.68
22649;BME280;11491;41.942;24.220;2022-07-23T10:37:48;90329.56;;;33.16;24.87
22649;BME280;11491;41.942;24.220;2022-07-23T10:40:17;90250.38;;;32.56;24.55
22649;BME280;11491;41.942;24.220;2022-07-23T10:42:44;90231.88;;;32.14;25.54
22649;BME280;11491;41.942;24.220;2022-07-23T10:45:29;90319.63;;;32.86;25.15
22649;BME280;11491;41.942;24.220;2022-07-23T10:48:12;90312.09;;;33.10;27.90
22649;BME280;11491;41.942;24.220;2022-07-23T10:50:40;90331.72;;;33.36;27.22
22649;BME280;11491;41.942;24.220;2022-07-23T10:53:16;90306.72;;;33.60;27.69
22649;BME280;11491;41.942;24.220;2022-07-23T10:55:46;90311.91;;;33.67;27.07
22649;BME280;11491;41.942;24.220;2022-07-23T10:58:21;90310.94;;;33.71;23.56
22649;BME280;11491;41.942;24.220;2022-07-23T11:00:48;90213.66;;;33.09;25.89
22649;BME280;11491;41.942;24.220;2022-07-23T11:03:33;90244.78;;;33.34;25.06
22649;BME280;11491;41.942;24.220;2022-07-23T11:06:02;90306.53;;;33.79;25.71
22649;BME280;11491;41.942;24.220;2022-07-23T11:08:30;90303.19;;;33.75;26.07
22649;BME280;11491;41.942;24.220;2022-07-23T11:11:11;90173.94;;;32.97;25.58
22649;BME280;11491;41.942;24.220;2022-07-23T11:13:46;90302.69;;;33.91;24.59
22649;BME280;11491;41.942;24.220;2022-07-23T11:16:16;90298.09;;;34.03;22.52
22649;BME280;11491;41.942;24.220;2022-07-23T11:19:05;90274.13;;;34.15;25.74
22649;BME280;11491;41.942;24.220;2022-07-23T11:24:24;90282.44;;;34.15;23.59
22649;BME280;11491;41.942;24.220;2022-07-23T11:27:00;90285.81;;;34.39;24.77
22649;BME280;11491;41.942;24.220;2022-07-23T11:29:48;90295.44;;;34.79;23.23
22649;BME280;11491;41.942;24.220;2022-07-23T11:32:29;90290.81;;;34.56;23.66
22649;BME280;11491;41.942;24.220;2022-07-23T11:34:58;90207.66;;;34.05;25.21
22649;BME280;11491;41.942;24.220;2022-07-23T11:37:32;90283.94;;;34.86;24.52
22649;BME280;11491;41.942;24.220;2022-07-23T11:40:02;90309.50;;;35.11;21.69
22649;BME280;11491;41.942;24.220;2022-07-23T11:42:29;90236.28;;;34.52;23.52
22649;BME280;11491;41.942;24.220;2022-07-23T11:44:56;90261.72;;;34.86;23.23
22649;BME280;11491;41.942;24.220;2022-07-23T11:47:24;90282.78;;;34.78;22.66
22649;BME280;11491;41.942;24.220;2022-07-23T11:49:52;90258.94;;;34.66;22.51
22649;BME280;11491;41.942;24.220;2022-07-23T11:52:20;90287.66;;;35.04;21.91
22649;BME280;11491;41.942;24.220;2022-07-23T11:54:48;90274.47;;;34.99;21.52
22649;BME280;11491;41.942;24.220;2022-07-23T11:57:17;90255.19;;;34.89;21.40
22649;BME280;11491;41.942;24.220;2022-07-23T11:59:47;90279.56;;;35.47;22.45
22649;BME280;11491;41.942;24.220;2022-07-23T12:02:16;90261.69;;;35.53;22.40
22649;BME280;11491;41.942;24.220;2022-07-23T12:04:44;90266.78;;;35.87;23.69
22649;BME280;11491;41.942;24.220;2022-07-23T12:07:38;90268.41;;;35.99;22.00
22649;BME280;11491;41.942;24.220;2022-07-23T12:10:10;90279.00;;;35.95;22.32
22649;BME280;11491;41.942;24.220;2022-07-23T12:12:41;90272.56;;;36.09;22.81
22649;BME280;11491;41.942;24.220;2022-07-23T12:15:09;90266.63;;;36.28;20.47
22649;BME280;11491;41.942;24.220;2022-07-23T12:17:38;90265.84;;;36.64;22.35
22649;BME280;11491;41.942;24.220;2022-07-23T12:20:07;90267.59;;;37.11;19.54
22649;BME280;11491;41.942;24.220;2022-07-23T12:22:36;90246.34;;;37.19;21.72
22649;BME280;11491;41.942;24.220;2022-07-23T12:25:06;90259.78;;;37.26;19.84
22649;BME280;11491;41.942;24.220;2022-07-23T12:27:34;90255.88;;;36.95;19.81
22649;BME280;11491;41.942;24.220;2022-07-23T12:30:24;90249.97;;;36.76;20.65
22649;BME280;11491;41.942;24.220;2022-07-23T12:32:54;90251.91;;;36.59;20.95
22649;BME280;11491;41.942;24.220;2022-07-23T12:35:22;90242.34;;;36.71;21.12
22649;BME280;11491;41.942;24.220;2022-07-23T12:37:51;90238.84;;;36.82;18.38
22649;BME280;11491;41.942;24.220;2022-07-23T12:40:29;90238.69;;;37.02;19.49
22649;BME280;11491;41.942;24.220;2022-07-23T12:42:57;90237.22;;;37.13;20.00
22649;BME280;11491;41.942;24.220;2022-07-23T12:45:27;90234.47;;;37.35;20.19
22649;BME280;11491;41.942;24.220;2022-07-23T12:48:00;90242.31;;;37.20;20.95
22649;BME280;11491;41.942;24.220;2022-07-23T12:50:37;90229.59;;;37.07;19.35
22649;BME280;11491;41.942;24.220;2022-07-23T12:53:06;90225.53;;;37.08;18.88
22649;BME280;11491;41.942;24.220;2022-07-23T12:55:34;90198.16;;;37.01;22.04
22649;BME280;11491;41.942;24.220;2022-07-23T12:58:06;90217.50;;;37.33;19.81
22649;BME280;11491;41.942;24.220;2022-07-23T13:00:49;90223.66;;;37.71;20.85
22649;BME280;11491;41.942;24.220;2022-07-23T13:03:27;90232.31;;;38.07;19.17
22649;BME280;11491;41.942;24.220;2022-07-23T13:05:55;90220.38;;;38.12;19.72
22649;BME280;11491;41.942;24.220;2022-07-23T13:08:22;90220.88;;;38.16;19.97
22649;BME280;11491;41.942;24.220;2022-07-23T13:10:49;90227.44;;;38.30;19.25
22649;BME280;11491;41.942;24.220;2022-07-23T13:13:17;90184.13;;;37.89;16.78
22649;BME280;11491;41.942;24.220;2022-07-23T13:15:48;90227.25;;;38.00;18.00
22649;BME280;11491;41.942;24.220;2022-07-23T13:18:15;90208.47;;;38.06;19.69
22649;BME280;11491;41.942;24.220;2022-07-23T13:20:43;90229.22;;;37.93;19.08
22649;BME280;11491;41.942;24.220;2022-07-23T13:23:10;90228.72;;;37.78;18.47
22649;BME280;11491;41.942;24.220;2022-07-23T13:25:37;90228.97;;;37.58;20.04
22649;BME280;11491;41.942;24.220;2022-07-23T13:28:04;90205.66;;;37.83;19.54
22649;BME280;11491;41.942;24.220;2022-07-23T13:30:31;90211.97;;;38.23;19.62
22649;BME280;11491;41.942;24.220;2022-07-23T13:32:59;90217.28;;;38.55;17.61
22649;BME280;11491;41.942;24.220;2022-07-23T13:35:26;90213.22;;;38.39;18.19
22649;BME280;11491;41.942;24.220;2022-07-23T13:37:55;90217.28;;;38.38;16.96
22649;BME280;11491;41.942;24.220;2022-07-23T13:40:23;90205.84;;;38.53;17.20
22649;BME280;11491;41.942;24.220;2022-07-23T13:42:49;90210.19;;;38.48;17.53